Time;durP1;ratioP1;P1;durP2;ratioP2;P2;SDS_P1;SDS_P2;PMS_P1;PMS_P2;Temp;Humidity;BMP_temperature;BMP_pressure;BME280_temperature;BME280_humidity;BME280_pressure;Samples;Min_cycle;Max_cycle;Signal;HPM_P1;HPM_P2
2023/03/06 00:02:17;;;;;;;17.38;9.35;;;;;;;9.68;55.69;100393.09;4960249;28;20054;-80
2023/03/06 00:04:44;;;;;;;17.50;11.18;;;;;;;9.80;55.18;100402.63;4953922;28;20683;-79
2023/03/06 00:07:18;;;;;;;16.05;9.75;;;;;;;10.05;54.26;100449.03;4934183;28;20575;-81
2023/03/06 00:09:54;;;;;;;19.95;10.52;;;;;;;8.61;54.23;100213.50;4958864;28;20444;-80
2023/03/06 00:12:23;;;;;;;19.23;10.23;;;;;;;9.78;54.21;100413.38;4968135;28;20377;-80
2023/03/06 00:15:00;;;;;;;22.60;11.20;;;;;;;9.89;54.17;100433.63;4953194;28;20050;-80
2023/03/06 00:17:31;;;;;;;20.55;11.70;;;;;;;9.91;53.69;100442.28;4953641;28;20138;-78
2023/03/06 00:20:06;;;;;;;15.57;9.75;;;;;;;9.87;54.64;100438.22;4964383;28;20133;-80
2023/03/06 00:22:37;;;;;;;20.38;10.07;;;;;;;9.89;53.96;100446.88;4923739;28;20136;-80
2023/03/06 00:25:06;;;;;;;17.92;9.65;;;;;;;9.80;56.12;100407.91;4914339;28;20486;-81
2023/03/06 00:27:35;;;;;;;19.13;9.95;;;;;;;9.74;55.24;100403.19;4951965;28;20119;-80
2023/03/06 00:30:12;;;;;;;27.35;10.45;;;;;;;9.86;55.35;100433.91;4926713;28;20046;-79
2023/03/06 00:32:50;;;;;;;21.55;10.35;;;;;;;9.92;55.52;100437.81;4939485;28;20046;-81
2023/03/06 00:35:23;;;;;;;16.50;9.70;;;;;;;9.86;55.74;100444.50;4947900;28;20279;-81
2023/03/06 00:37:52;;;;;;;18.77;10.32;;;;;;;9.73;55.85;100414.75;4944012;28;20090;-80
2023/03/06 00:40:33;;;;;;;24.52;10.88;;;;;;;9.70;55.45;100428.28;4948473;28;20055;-78
2023/03/06 00:43:17;;;;;;;26.00;10.77;;;;;;;9.66;56.42;100421.56;4943051;28;20436;-79
2023/03/06 00:45:56;;;;;;;20.42;10.40;;;;;;;9.73;56.82;100423.53;4945863;28;20442;-81
2023/03/06 00:48:23;;;;;;;14.57;9.55;;;;;;;9.76;56.15;100438.34;4951722;28;20054;-81
2023/03/06 00:50:49;;;;;;;26.30;11.82;;;;;;;9.45;55.86;100400.44;4962774;28;20046;-79
2023/03/06 00:53:25;;;;;;;22.67;10.70;;;;;;;9.53;56.52;100412.03;4958807;28;20090;-81
2023/03/06 00:55:51;;;;;;;20.80;9.88;;;;;;;9.40;56.82;100388.41;4944071;28;20581;-82
2023/03/06 00:58:23;;;;;;;18.48;10.07;;;;;;;9.09;57.25;100331.97;4956304;28;20065;-81
2023/03/06 01:00:59;;;;;;;19.63;10.68;;;;;;;9.60;57.27;100417.63;4968492;28;20050;-80
2023/03/06 01:03:31;;;;;;;20.27;10.30;;;;;;;9.50;56.94;100406.16;4953135;28;20054;-80
2023/03/06 01:06:01;;;;;;;14.55;9.43;;;;;;;9.46;57.56;100408.25;4967670;28;20076;-79
2023/03/06 01:08:27;;;;;;;16.27;9.82;;;;;;;9.55;57.06;100414.56;4946913;28;20281;-79
2023/03/06 01:10:58;;;;;;;19.50;10.85;;;;;;;9.39;57.45;100384.13;4947841;28;20420;-79
2023/03/06 01:13:25;;;;;;;21.05;10.05;;;;;;;9.54;56.78;100407.56;4962693;28;20641;-80
2023/03/06 01:16:08;;;;;;;21.40;10.75;;;;;;;9.58;57.15;100416.94;4954133;28;20085;-79
2023/03/06 01:18:40;;;;;;;14.77;9.98;;;;;;;9.56;57.13;100411.78;4956318;28;20507;-79
2023/03/06 01:21:17;;;;;;;19.80;11.27;;;;;;;9.32;56.72;100374.16;4971307;28;20415;-80
2023/03/06 01:23:44;;;;;;;23.10;10.98;;;;;;;9.37;57.54;100390.53;4949842;28;20366;-80
2023/03/06 01:26:11;;;;;;;20.25;10.93;;;;;;;9.47;56.97;100401.97;4952095;28;20054;-78
2023/03/06 01:28:38;;;;;;;21.77;10.70;;;;;;;9.39;56.81;100389.41;4953526;28;20053;-80
2023/03/06 01:31:13;;;;;;;20.25;9.90;;;;;;;9.46;57.30;100389.69;4949062;28;20050;-80
2023/03/06 01:33:46;;;;;;;20.55;10.57;;;;;;;8.97;57.01;100303.91;4981354;28;20484;-77
2023/03/06 01:36:20;;;;;;;20.92;11.15;;;;;;;9.44;57.20;100391.63;4959680;28;20053;-79
2023/03/06 01:38:47;;;;;;;28.42;10.80;;;;;;;9.34;57.89;100382.81;4974489;28;20061;-77
2023/03/06 01:41:20;;;;;;;18.63;9.85;;;;;;;9.03;57.40;100329.88;4952797;28;20054;-79
2023/03/06 01:43:49;;;;;;;19.90;10.70;;;;;;;9.30;57.67;100373.47;4964416;28;20049;-80
2023/03/06 01:46:29;;;;;;;33.35;12.00;;;;;;;8.93;57.53;100313.09;4954256;28;20057;-78
2023/03/06 01:49:11;;;;;;;28.05;10.82;;;;;;;9.19;58.11;100351.38;4963870;28;20073;-77
2023/03/06 01:51:59;;;;;;;24.90;11.13;;;;;;;8.55;57.71;100245.81;4966512;28;20514;-80
2023/03/06 01:54:34;;;;;;;22.85;10.50;;;;;;;9.29;57.91;100367.31;4957023;28;20430;-79
2023/03/06 01:57:27;;;;;;;16.35;10.43;;;;;;;9.27;57.52;100369.28;4938649;28;20392;-80
2023/03/06 02:00:18;;;;;;;18.80;9.68;;;;;;;9.26;58.16;100366.75;4951450;28;20137;-79
2023/03/06 02:03:25;;;;;;;19.35;10.73;;;;;;;9.11;58.59;100359.19;4993814;28;20087;-78
2023/03/06 02:05:59;;;;;;;21.38;10.40;;;;;;;8.95;58.04;100330.53;4989331;28;20050;-78
2023/03/06 02:08:31;;;;;;;17.10;9.85;;;;;;;8.79;58.96;100290.47;4994587;28;20132;-80
2023/03/06 02:11:06;;;;;;;18.05;10.18;;;;;;;9.10;59.08;100352.22;4996387;28;20037;-79
2023/03/06 02:13:39;;;;;;;21.60;11.18;;;;;;;9.15;58.76;100367.69;4963959;28;20572;-81
2023/03/06 02:16:13;;;;;;;21.77;11.52;;;;;;;8.98;59.06;100340.00;4965541;28;20213;-78
2023/03/06 02:18:49;;;;;;;24.75;11.20;;;;;;;9.08;58.11;100351.50;4954783;28;20279;-80
2023/03/06 02:21:42;;;;;;;17.90;10.82;;;;;;;9.06;58.79;100356.09;4960943;28;20437;-79
2023/03/06 02:24:35;;;;;;;28.30;11.63;;;;;;;8.60;58.16;100274.50;4974968;28;20045;-79
2023/03/06 02:27:13;;;;;;;17.98;10.95;;;;;;;8.68;59.24;100286.09;4985376;28;20478;-78
2023/03/06 02:29:42;;;;;;;21.90;11.75;;;;;;;8.94;59.47;100323.56;4971797;28;20053;-80
2023/03/06 02:32:11;;;;;;;;;;;;;;;9.14;59.21;100364.19;5004747;28;20060;-79
2023/03/06 02:34:38;;;;;;;18.20;10.95;;;;;;;8.74;59.24;100292.69;4977391;28;19928;-81
2023/03/06 02:37:11;;;;;;;16.77;11.48;;;;;;;8.81;59.09;100274.44;4979893;28;20447;-78
2023/03/06 02:39:47;;;;;;;16.42;11.05;;;;;;;9.39;58.59;100332.91;4998342;28;20093;-79
2023/03/06 02:42:32;;;;;;;19.10;10.65;;;;;;;9.48;57.84;100333.91;4997694;28;20408;-77
2023/03/06 02:45:11;;;;;;;18.92;9.70;;;;;;;9.60;58.48;100344.25;4983383;28;20394;-78
2023/03/06 02:47:48;;;;;;;20.13;11.70;;;;;;;9.66;58.30;100339.38;4992679;28;20140;-80
2023/03/06 02:50:19;;;;;;;25.13;11.77;;;;;;;9.71;58.00;100339.81;4974595;28;20730;-78
2023/03/06 02:52:48;;;;;;;17.58;10.98;;;;;;;9.65;58.33;100330.59;4976671;28;20671;-79
2023/03/06 02:55:15;;;;;;;15.93;10.70;;;;;;;9.70;58.06;100343.44;4959581;28;20042;-78
2023/03/06 02:57:45;;;;;;;23.63;11.85;;;;;;;9.68;58.48;100340.91;4982187;28;20057;-78
2023/03/06 03:00:18;;;;;;;17.98;11.10;;;;;;;9.55;58.11;100317.34;4995128;28;20495;-79
2023/03/06 03:02:45;;;;;;;15.00;9.32;;;;;;;9.70;58.50;100330.19;4973410;28;20475;-78
2023/03/06 03:05:12;;;;;;;17.52;10.23;;;;;;;9.83;58.98;100350.19;4972716;28;20054;-79
2023/03/06 03:07:49;;;;;;;21.10;11.15;;;;;;;9.83;58.42;100352.00;4954273;28;20049;-79
2023/03/06 03:10:24;;;;;;;20.00;11.80;;;;;;;9.66;58.05;100331.44;4958885;28;20076;-80
2023/03/06 03:12:57;;;;;;;17.58;10.55;;;;;;;9.88;58.17;100347.13;4976198;28;20867;-78
2023/03/06 03:15:24;;;;;;;19.08;10.90;;;;;;;9.13;57.98;100239.88;4957000;28;20376;-80
2023/03/06 03:17:55;;;;;;;16.88;10.48;;;;;;;9.61;58.42;100294.75;4959817;28;20492;-82
2023/03/06 03:20:22;;;;;;;18.85;10.85;;;;;;;9.38;59.12;100270.31;4978986;28;20139;-80
2023/03/06 03:22:52;;;;;;;19.30;11.63;;;;;;;9.79;58.25;100321.41;4952733;28;20225;-79
2023/03/06 03:25:23;;;;;;;17.98;11.65;;;;;;;9.77;58.26;100308.28;4963234;28;20068;-79
2023/03/06 03:28:02;;;;;;;21.38;11.80;;;;;;;10.15;58.17;100332.31;4961399;28;20056;-80
2023/03/06 03:30:34;;;;;;;20.23;11.45;;;;;;;10.16;57.40;100334.81;4951920;28;20067;-79
2023/03/06 03:33:03;;;;;;;18.05;9.80;;;;;;;10.06;57.26;100326.03;4972730;28;20558;-80
2023/03/06 03:35:42;;;;;;;20.38;11.60;;;;;;;9.98;57.73;100318.78;4952434;28;20062;-78
2023/03/06 03:38:10;;;;;;;25.75;11.05;;;;;;;9.84;58.12;100292.69;4953937;28;20057;-79
2023/03/06 03:40:42;;;;;;;21.92;11.30;;;;;;;10.00;58.29;100334.53;4952374;28;20054;-79
2023/03/06 03:43:26;;;;;;;18.15;11.70;;;;;;;9.92;58.09;100339.72;4943299;28;20599;-81
2023/03/06 03:46:00;;;;;;;17.48;11.40;;;;;;;9.92;58.84;100334.41;4943427;28;20491;-77
2023/03/06 03:48:30;;;;;;;21.60;12.05;;;;;;;9.83;58.25;100325.47;4932139;28;20046;-79
2023/03/06 03:51:24;;;;;;;20.67;11.02;;;;;;;9.67;57.90;100311.94;4942585;28;20238;-79
2023/03/06 03:53:59;;;;;;;22.57;10.53;;;;;;;9.77;58.74;100334.81;4936165;28;20054;-79
2023/03/06 03:56:26;;;;;;;21.48;11.18;;;;;;;9.66;58.44;100311.09;4943478;28;20303;-80
2023/03/06 03:58:58;;;;;;;19.83;11.35;;;;;;;9.25;58.54;100256.47;4951598;28;20053;-79
2023/03/06 04:01:31;;;;;;;18.20;11.63;;;;;;;9.16;58.60;100247.53;4943248;28;20050;-79
2023/03/06 04:03:57;;;;;;;26.17;11.70;;;;;;;9.75;59.23;100322.66;4973858;28;20145;-78
2023/03/06 04:06:24;;;;;;;26.00;11.05;;;;;;;9.69;58.69;100331.19;4983937;28;20046;-80
2023/03/06 04:08:55;;;;;;;16.98;9.70;;;;;;;9.43;58.28;100273.38;4981507;28;20050;-79
2023/03/06 04:11:29;;;;;;;22.30;11.25;;;;;;;9.83;58.55;100328.13;4994134;28;20049;-79
2023/03/06 04:13:59;;;;;;;17.17;10.43;;;;;;;9.29;58.34;100240.16;4987687;28;20490;-79
2023/03/06 04:16:31;;;;;;;;;;;;;;;9.67;59.01;100317.22;4980221;28;20392;-80
2023/03/06 04:19:04;;;;;;;19.67;11.50;;;;;;;9.57;59.17;100322.50;4998824;28;19925;-78
2023/03/06 04:21:33;;;;;;;21.02;11.40;;;;;;;9.43;59.15;100304.34;4976238;28;20045;-79
2023/03/06 04:24:05;;;;;;;18.13;10.20;;;;;;;9.39;58.85;100293.16;4976018;28;20104;-79
2023/03/06 04:26:38;;;;;;;20.48;10.48;;;;;;;9.52;59.81;100296.41;4993079;28;20275;-79
2023/03/06 04:29:05;;;;;;;25.17;12.52;;;;;;;9.71;58.78;100318.59;4970270;28;20300;-78
2023/03/06 04:31:32;;;;;;;22.90;11.43;;;;;;;9.70;58.80;100311.63;4981893;28;20473;-77
2023/03/06 04:33:59;;;;;;;24.60;11.80;;;;;;;9.57;59.05;100302.13;4981058;28;20041;-78
2023/03/06 04:36:43;;;;;;;23.58;10.88;;;;;;;9.52;59.02;100299.06;4982004;28;20054;-80
2023/03/06 04:39:15;;;;;;;22.45;11.60;;;;;;;9.43;59.49;100286.63;4985341;28;20530;-80
2023/03/06 04:41:50;;;;;;;18.88;10.20;;;;;;;9.22;59.21;100254.94;4985636;28;20452;-80
2023/03/06 04:44:20;;;;;;;25.63;12.77;;;;;;;9.26;59.71;100268.75;4987891;28;20065;-78
2023/03/06 04:46:46;;;;;;;20.60;11.90;;;;;;;9.22;59.70;100262.88;4987027;28;20111;-76
2023/03/06 04:49:17;;;;;;;20.00;12.13;;;;;;;9.05;59.18;100242.34;4996611;28;20052;-78
2023/03/06 04:51:45;;;;;;;24.45;12.00;;;;;;;9.19;59.70;100277.22;5015762;28;20056;-80
2023/03/06 04:54:14;;;;;;;20.48;11.38;;;;;;;9.14;60.12;100276.81;4978868;28;20077;-80
2023/03/06 04:56:51;;;;;;;15.55;9.63;;;;;;;9.35;60.81;100278.53;4978429;28;20077;-80
2023/03/06 04:59:23;;;;;;;20.45;12.13;;;;;;;9.45;59.86;100281.22;4983239;28;20650;-80
2023/03/06 05:02:00;;;;;;;20.65;10.80;;;;;;;9.56;60.36;100279.28;4998444;28;20471;-79
2023/03/06 05:04:32;;;;;;;13.70;10.20;;;;;;;9.51;59.80;100268.22;4992150;28;20461;-81
2023/03/06 05:06:58;;;;;;;21.08;11.90;;;;;;;9.33;58.99;100228.34;4987308;28;20053;-79
2023/03/06 05:09:25;;;;;;;25.75;11.65;;;;;;;9.38;58.80;100239.34;4979180;28;20041;-79
2023/03/06 05:11:52;;;;;;;23.25;11.27;;;;;;;9.67;58.83;100296.03;4959265;28;20536;-78
2023/03/06 05:14:20;;;;;;;17.40;10.70;;;;;;;9.54;59.33;100297.13;4966385;28;20052;-80
2023/03/06 05:16:50;;;;;;;27.27;12.15;;;;;;;9.15;59.38;100249.38;4984448;28;20041;-80
2023/03/06 05:19:29;;;;;;;29.90;13.13;;;;;;;9.21;59.72;100274.47;5000874;28;20304;-80
2023/03/06 05:22:04;;;;;;;22.70;12.02;;;;;;;9.14;60.06;100279.44;4985669;28;20607;-78
2023/03/06 05:24:39;;;;;;;26.33;12.90;;;;;;;8.97;60.11;100250.97;4949622;28;20068;-80
2023/03/06 05:27:11;;;;;;;28.45;12.70;;;;;;;9.26;60.07;100308.50;4967349;28;20057;-80
2023/03/06 05:29:48;;;;;;;21.98;13.00;;;;;;;9.07;60.29;100291.56;4979016;28;20367;-80
2023/03/06 05:32:15;;;;;;;24.85;13.88;;;;;;;8.64;60.33;100229.13;4979867;28;20557;-78
2023/03/06 05:34:48;;;;;;;20.45;11.98;;;;;;;8.96;59.77;100271.31;4980281;28;20726;-80
2023/03/06 05:37:25;;;;;;;25.10;13.45;;;;;;;9.47;60.16;100303.13;4978442;28;20057;-79
2023/03/06 05:39:57;;;;;;;26.55;13.35;;;;;;;9.44;59.58;100301.53;4980732;28;20053;-75
2023/03/06 05:42:30;;;;;;;32.78;12.75;;;;;;;9.36;59.56;100298.75;4977280;28;20126;-79
2023/03/06 05:44:56;;;;;;;24.90;12.25;;;;;;;9.34;59.91;100306.00;4983167;28;20045;-82
2023/03/06 05:47:26;;;;;;;28.13;12.90;;;;;;;8.91;59.67;100217.94;4976450;28;20045;-79
2023/03/06 05:50:03;;;;;;;28.23;14.38;;;;;;;9.16;59.85;100266.91;4999335;28;20059;-78
2023/03/06 05:52:38;;;;;;;23.67;14.10;;;;;;;9.41;59.84;100304.47;4941271;28;20053;-80
2023/03/06 05:55:21;;;;;;;21.42;13.18;;;;;;;9.23;60.02;100276.97;4947615;28;20049;-78
2023/03/06 05:57:54;;;;;;;27.77;12.55;;;;;;;9.46;60.00;100283.69;4955760;28;20053;-77
2023/03/06 06:00:26;;;;;;;17.70;10.90;;;;;;;9.72;60.08;100301.75;4976454;28;20321;-79
2023/03/06 06:03:00;;;;;;;21.20;12.50;;;;;;;9.67;59.49;100282.78;4988668;28;20058;-80
2023/03/06 06:05:26;;;;;;;24.13;15.50;;;;;;;9.66;58.47;100292.53;4998193;28;20264;-79
2023/03/06 06:07:58;;;;;;;25.95;13.65;;;;;;;9.73;58.50;100311.34;4992314;28;20060;-79
2023/03/06 06:10:25;;;;;;;26.00;11.63;;;;;;;9.37;59.66;100237.69;5001905;28;20073;-79
2023/03/06 06:13:01;;;;;;;26.35;13.38;;;;;;;9.76;58.31;100309.28;5006847;28;20390;-78
2023/03/06 06:15:29;;;;;;;25.58;14.40;;;;;;;9.47;58.47;100284.56;5022371;28;20115;-80
2023/03/06 06:17:59;;;;;;;31.67;14.05;;;;;;;9.67;58.82;100311.94;5016453;28;20081;-80
2023/03/06 06:20:28;;;;;;;23.23;13.30;;;;;;;9.53;58.70;100311.31;5002218;28;20045;-78
2023/03/06 06:22:55;;;;;;;30.63;13.00;;;;;;;9.47;59.75;100313.72;5001140;28;20052;-79
2023/03/06 06:25:22;;;;;;;37.92;14.05;;;;;;;9.44;59.77;100306.00;4999868;28;20060;-79
2023/03/06 06:27:49;;;;;;;25.55;12.60;;;;;;;9.20;60.25;100270.16;5020400;28;20429;-82
2023/03/06 06:30:16;;;;;;;27.63;13.80;;;;;;;9.39;60.60;100303.75;5020806;28;20503;-78
2023/03/06 06:32:46;;;;;;;21.75;13.20;;;;;;;9.41;61.27;100296.53;5020662;28;20060;-79
2023/03/06 06:35:17;;;;;;;32.28;15.05;;;;;;;9.34;60.86;100284.78;5020202;28;20487;-81
2023/03/06 06:37:46;;;;;;;31.50;15.32;;;;;;;9.52;60.76;100312.31;5023237;28;20350;-80
2023/03/06 06:40:13;;;;;;;26.17;14.02;;;;;;;9.50;60.40;100316.91;5023404;28;20079;-79
2023/03/06 06:42:40;;;;;;;27.95;14.88;;;;;;;9.47;60.90;100317.19;5012664;28;20114;-79
2023/03/06 06:45:09;;;;;;;32.38;14.95;;;;;;;8.96;61.38;100238.72;5025186;28;20288;-80
2023/03/06 06:47:39;;;;;;;30.33;14.75;;;;;;;9.40;61.17;100310.75;5016084;28;20060;-79
2023/03/06 06:50:12;;;;;;;37.20;14.48;;;;;;;9.41;61.32;100307.13;5016072;28;20518;-80
2023/03/06 06:52:39;;;;;;;26.38;13.27;;;;;;;9.46;61.17;100304.06;5007496;28;20584;-79
2023/03/06 06:55:07;;;;;;;25.00;11.98;;;;;;;9.71;61.70;100323.91;5029464;28;20055;-80
2023/03/06 06:57:35;;;;;;;24.35;11.65;;;;;;;9.85;61.40;100320.84;5010402;28;20136;-79
2023/03/06 07:00:03;;;;;;;28.58;12.65;;;;;;;9.82;61.14;100299.94;5009929;28;20050;-79
2023/03/06 07:02:37;;;;;;;21.38;12.40;;;;;;;10.08;60.90;100325.91;4997501;28;20072;-80
2023/03/06 07:05:23;;;;;;;29.08;11.75;;;;;;;10.12;60.80;100316.66;5004381;28;20046;-79
2023/03/06 07:07:54;;;;;;;22.20;11.02;;;;;;;10.17;61.22;100307.34;5011054;28;20098;-80
2023/03/06 07:10:21;;;;;;;19.75;10.55;;;;;;;10.27;61.30;100320.59;5022965;28;20053;-81
2023/03/06 07:12:48;;;;;;;22.10;10.13;;;;;;;10.06;61.18;100296.84;5022035;28;20086;-81
2023/03/06 07:15:16;;;;;;;19.75;9.27;;;;;;;10.04;60.55;100280.25;5001898;28;20079;-81
2023/03/06 07:17:43;;;;;;;24.05;10.13;;;;;;;9.88;60.47;100246.34;5025294;28;20049;-79
2023/03/06 07:20:11;;;;;;;36.28;14.43;;;;;;;10.14;60.56;100288.19;5009614;28;20374;-80
2023/03/06 07:22:38;;;;;;;30.38;12.52;;;;;;;10.34;61.15;100327.03;5002066;28;20056;-79
2023/03/06 07:25:16;;;;;;;36.97;17.60;;;;;;;10.31;61.73;100315.84;4982701;28;20427;-77
2023/03/06 07:27:43;;;;;;;35.55;17.45;;;;;;;10.38;61.06;100317.78;4981703;28;20049;-78
2023/03/06 07:30:21;;;;;;;29.88;15.40;;;;;;;10.31;61.53;100318.50;4984806;28;20058;-78
2023/03/06 07:32:54;;;;;;;27.63;13.48;;;;;;;9.96;61.39;100262.38;5018393;28;20103;-78
2023/03/06 07:35:25;;;;;;;28.00;12.32;;;;;;;10.30;61.43;100320.34;5033808;28;20465;-75
2023/03/06 07:37:52;;;;;;;32.75;11.40;;;;;;;10.27;60.79;100299.38;5016917;28;20111;-77
2023/03/06 07:40:25;;;;;;;27.40;12.85;;;;;;;10.33;61.34;100298.81;5007436;28;20757;-79
2023/03/06 07:42:56;;;;;;;20.42;11.52;;;;;;;10.35;60.63;100294.22;4990564;28;20142;-75
2023/03/06 07:45:39;;;;;;;23.35;11.45;;;;;;;10.66;60.81;100320.53;5004023;28;20047;-77
2023/03/06 07:48:06;;;;;;;21.15;10.93;;;;;;;10.71;61.26;100320.94;5034066;28;20048;-78
2023/03/06 07:50:37;;;;;;;27.27;9.70;;;;;;;10.49;61.00;100282.31;5035366;28;20129;-79
2023/03/06 07:53:04;;;;;;;17.75;9.38;;;;;;;10.79;60.58;100322.88;5019685;28;20480;-79
2023/03/06 07:55:31;;;;;;;10.77;6.85;;;;;;;10.75;60.35;100303.72;5017929;28;20162;-79
2023/03/06 07:57:58;;;;;;;17.70;8.40;;;;;;;10.67;60.17;100282.38;5008333;28;20049;-78
2023/03/06 08:00:25;;;;;;;13.73;8.93;;;;;;;11.01;60.48;100322.50;5007384;28;20280;-79
2023/03/06 08:02:52;;;;;;;11.20;7.10;;;;;;;10.98;60.01;100298.06;4996306;28;20124;-77
2023/03/06 08:05:22;;;;;;;15.10;7.97;;;;;;;11.11;59.93;100293.25;5006631;28;20510;-76
2023/03/06 08:07:49;;;;;;;13.48;7.50;;;;;;;11.26;59.50;100302.41;5012746;28;20052;-79
2023/03/06 08:10:16;;;;;;;12.07;8.27;;;;;;;11.42;59.39;100311.56;5015110;28;20449;-78
2023/03/06 08:12:43;;;;;;;11.48;6.30;;;;;;;11.43;59.29;100307.91;5019572;28;20056;-78
2023/03/06 08:15:23;;;;;;;10.15;6.85;;;;;;;11.51;58.54;100306.19;5006479;28;20495;-79
2023/03/06 08:17:55;;;;;;;12.77;7.10;;;;;;;11.36;58.34;100281.09;5015711;28;20051;-78
2023/03/06 08:20:28;;;;;;;12.52;7.10;;;;;;;11.73;58.65;100309.41;5015315;28;20061;-76
2023/03/06 08:22:55;;;;;;;17.30;7.18;;;;;;;11.83;57.57;100314.66;5007972;28;20068;-80
2023/03/06 08:25:30;;;;;;;12.80;7.15;;;;;;;11.79;58.22;100307.94;5014218;28;20795;-77
2023/03/06 08:28:04;;;;;;;9.63;4.72;;;;;;;11.94;57.53;100294.00;5016661;28;20048;-80
2023/03/06 08:30:35;;;;;;;7.82;5.60;;;;;;;12.36;56.67;100311.13;5007923;28;20080;-78
2023/03/06 08:33:02;;;;;;;14.63;3.33;;;;;;;12.43;55.96;100308.66;5014924;28;20244;-80
2023/03/06 08:35:29;;;;;;;5.15;3.45;;;;;;;12.45;56.35;100314.69;5012170;28;20107;-79
2023/03/06 08:37:55;;;;;;;2.78;2.30;;;;;;;12.43;56.40;100309.53;4998380;28;20061;-79
2023/03/06 08:40:29;;;;;;;6.75;3.35;;;;;;;12.50;55.95;100304.41;4950329;28;20304;-77
2023/03/06 08:43:03;;;;;;;11.20;3.63;;;;;;;12.47;56.05;100310.88;4961826;28;20427;-78
2023/03/06 08:45:30;;;;;;;5.70;3.10;;;;;;;12.40;56.31;100291.19;4996850;28;20053;-78
2023/03/06 08:48:00;;;;;;;5.63;3.13;;;;;;;11.96;55.83;100227.34;5015150;28;20515;-77
2023/03/06 08:50:28;;;;;;;4.13;2.50;;;;;;;12.35;56.48;100306.78;5017006;28;20076;-78
2023/03/06 08:52:54;;;;;;;4.72;2.75;;;;;;;12.40;56.77;100318.66;5014055;28;20099;-79
2023/03/06 08:55:22;;;;;;;9.70;3.00;;;;;;;12.37;56.72;100310.13;5016206;28;20045;-80
2023/03/06 08:57:54;;;;;;;4.68;1.90;;;;;;;12.47;56.58;100312.69;4958011;28;20338;-78
2023/03/06 09:00:34;;;;;;;4.90;2.22;;;;;;;12.45;56.49;100310.22;4945235;28;20372;-78
2023/03/06 09:03:04;;;;;;;4.20;2.80;;;;;;;12.42;56.41;100301.69;4997899;28;20045;-76
2023/03/06 09:05:41;;;;;;;2.80;2.42;;;;;;;12.53;56.82;100307.59;4981369;28;20043;-80
2023/03/06 09:08:14;;;;;;;7.22;2.58;;;;;;;12.42;56.54;100299.03;4997602;28;20048;-79
2023/03/06 09:10:48;;;;;;;3.03;2.10;;;;;;;12.38;56.78;100282.53;4971431;28;20045;-80
2023/03/06 09:13:21;;;;;;;3.88;2.40;;;;;;;12.68;56.39;100301.69;4975594;28;20049;-79
2023/03/06 09:15:51;;;;;;;5.20;1.85;;;;;;;12.68;55.70;100283.06;4975575;28;20493;-77
2023/03/06 09:18:18;;;;;;;2.13;1.92;;;;;;;12.86;55.05;100302.44;4985902;28;20495;-78
2023/03/06 09:20:44;;;;;;;1.73;1.55;;;;;;;12.90;54.80;100282.50;4996457;28;20320;-77
2023/03/06 09:23:14;;;;;;;3.97;2.00;;;;;;;13.07;55.09;100311.91;4987116;28;20462;-79
2023/03/06 09:25:41;;;;;;;5.57;1.75;;;;;;;12.97;55.00;100294.19;4972580;28;20042;-79
2023/03/06 09:28:07;;;;;;;6.10;2.40;;;;;;;12.86;54.71;100280.31;4981769;28;20106;-78
2023/03/06 09:30:39;;;;;;;2.28;1.77;;;;;;;13.11;54.85;100295.44;4978358;28;20485;-78
2023/03/06 09:33:13;;;;;;;1.48;1.35;;;;;;;13.11;54.12;100278.59;5003809;28;20045;-76
2023/03/06 09:35:53;;;;;;;6.57;1.88;;;;;;;13.42;54.09;100298.41;4984233;28;20483;-79
2023/03/06 09:38:22;;;;;;;2.47;1.75;;;;;;;13.59;53.75;100296.63;4988819;28;20269;-78
2023/03/06 09:41:34;;;;;;;1.63;1.52;;;;;;;13.57;53.61;100287.94;4989502;28;20049;-78
2023/03/06 09:44:13;;;;;;;4.57;1.85;;;;;;;13.77;53.58;100292.97;4932436;28;20629;-79
2023/03/06 09:46:55;;;;;;;4.70;1.70;;;;;;;13.78;53.29;100290.13;5003929;28;20037;-81
2023/03/06 09:49:44;;;;;;;6.57;1.85;;;;;;;14.05;52.26;100294.34;4992877;28;20053;-81
2023/03/06 09:52:39;;;;;;;2.05;1.48;;;;;;;13.92;52.19;100279.81;4992410;28;20456;-79
2023/03/06 09:55:25;;;;;;;2.08;1.40;;;;;;;13.72;52.30;100269.47;5002810;28;20423;-80
2023/03/06 09:58:14;;;;;;;2.72;1.55;;;;;;;13.77;52.41;100263.63;4987248;28;20051;-78
2023/03/06 10:01:16;;;;;;;2.92;1.63;;;;;;;13.96;52.16;100294.50;4984461;28;20045;-80
2023/03/06 10:04:03;;;;;;;7.25;1.83;;;;;;;13.90;51.89;100296.81;5003745;28;20085;-79
2023/03/06 10:06:55;;;;;;;3.97;1.92;;;;;;;14.04;52.52;100294.50;4997275;28;20888;-77
2023/03/06 10:09:45;;;;;;;3.38;1.92;;;;;;;13.85;52.62;100274.28;4988941;28;20607;-80
2023/03/06 10:12:23;;;;;;;3.33;1.98;;;;;;;13.56;52.14;100197.41;4995842;28;20535;-78
2023/03/06 10:15:17;;;;;;;2.22;1.60;;;;;;;14.32;52.28;100300.31;5001684;28;20057;-79
2023/03/06 10:17:47;;;;;;;4.22;1.70;;;;;;;14.27;52.29;100274.13;5026364;28;20082;-79
2023/03/06 10:20:14;;;;;;;5.43;1.40;;;;;;;14.59;51.28;100293.81;5001885;28;20061;-79
2023/03/06 10:23:04;;;;;;;1.90;1.55;;;;;;;15.03;50.82;100288.00;5002662;28;20239;-79
2023/03/06 10:25:58;;;;;;;3.22;1.50;;;;;;;14.75;50.04;100290.25;4980483;28;20061;-80
2023/03/06 10:28:56;;;;;;;4.05;1.17;;;;;;;14.58;49.69;100267.25;4958225;28;20413;-80
2023/03/06 10:31:35;;;;;;;2.35;1.35;;;;;;;14.52;50.81;100274.09;4997576;28;20069;-79
2023/03/06 10:34:27;;;;;;;3.42;1.65;;;;;;;14.36;50.98;100239.41;4999034;28;20061;-78
2023/03/06 10:37:01;;;;;;;3.33;1.75;;;;;;;14.63;49.91;100271.09;5012371;28;20053;-80
2023/03/06 10:39:28;;;;;;;1.80;1.10;;;;;;;14.96;49.77;100282.50;5019818;28;20044;-79
2023/03/06 10:41:58;;;;;;;1.20;1.05;;;;;;;15.09;49.75;100273.94;5023357;28;20561;-76
2023/03/06 10:44:27;;;;;;;2.55;1.27;;;;;;;14.75;49.59;100200.25;5021015;28;20525;-81
2023/03/06 10:46:55;;;;;;;2.03;1.75;;;;;;;15.22;49.47;100268.03;5024757;28;20045;-79
2023/03/06 10:49:30;;;;;;;2.38;1.35;;;;;;;15.04;50.04;100283.50;5026304;28;20060;-80
2023/03/06 10:52:30;;;;;;;5.38;1.42;;;;;;;14.92;50.27;100272.34;5013501;28;20048;-80
2023/03/06 10:55:31;;;;;;;2.15;1.25;;;;;;;14.96;49.48;100262.97;4980914;28;20057;-78
2023/03/06 10:58:29;;;;;;;1.55;1.40;;;;;;;14.96;50.02;100265.66;5002924;28;20053;-78
2023/03/06 11:01:05;;;;;;;2.95;1.55;;;;;;;14.79;50.01;100254.19;5028988;28;20419;-80
2023/03/06 11:03:41;;;;;;;16.92;1.55;;;;;;;14.76;50.02;100262.56;5019445;28;20352;-80
2023/03/06 11:06:28;;;;;;;1.20;1.10;;;;;;;14.69;49.86;100262.41;5013094;28;20137;-79
2023/03/06 11:09:23;;;;;;;2.75;1.50;;;;;;;14.67;50.03;100260.91;4996182;28;20077;-79
2023/03/06 11:11:56;;;;;;;2.03;1.42;;;;;;;14.77;50.23;100261.53;5003214;28;20049;-78
2023/03/06 11:14:28;;;;;;;3.45;1.27;;;;;;;14.56;50.75;100248.72;5021527;28;20076;-80
2023/03/06 11:16:58;;;;;;;1.42;1.25;;;;;;;14.57;50.88;100252.25;5024188;28;20059;-79
2023/03/06 11:19:30;;;;;;;1.67;1.25;;;;;;;14.42;50.44;100231.56;5009184;28;20280;-76
2023/03/06 11:22:17;;;;;;;2.30;1.25;;;;;;;14.45;50.56;100249.06;5011277;28;20464;-79
2023/03/06 11:24:49;;;;;;;1.40;1.05;;;;;;;14.54;50.67;100264.13;5012735;28;20056;-79
2023/03/06 11:27:33;;;;;;;1.38;1.23;;;;;;;14.54;50.45;100261.44;5024362;28;20047;-80
2023/03/06 11:30:16;;;;;;;1.17;1.08;;;;;;;14.43;50.70;100248.41;5023280;28;20050;-80
2023/03/06 11:33:06;;;;;;;1.27;1.02;;;;;;;14.48;50.61;100251.41;4986412;28;20372;-78
2023/03/06 11:36:11;;;;;;;1.98;1.05;;;;;;;14.48;50.37;100252.22;4972386;28;20053;-80
2023/03/06 11:38:43;;;;;;;2.25;1.60;;;;;;;14.28;50.79;100248.25;5020780;28;20103;-78
2023/03/06 11:41:25;;;;;;;2.05;1.00;;;;;;;13.97;51.46;100214.25;5020502;28;20057;-79
2023/03/06 11:43:59;;;;;;;2.20;1.08;;;;;;;14.18;51.37;100251.13;5017646;28;20053;-81
2023/03/06 11:47:01;;;;;;;1.83;1.25;;;;;;;14.19;50.73;100231.41;5013233;28;20124;-80
2023/03/06 11:49:40;;;;;;;1.33;1.15;;;;;;;14.10;51.01;100243.94;4999645;28;20057;-79
2023/03/06 11:52:40;;;;;;;5.07;1.55;;;;;;;14.08;51.73;100250.47;5000106;28;20147;-76